Time;durP1;ratioP1;P1;durP2;ratioP2;P2;SDS_P1;SDS_P2;PMS_P1;PMS_P2;Temp;Humidity;BMP_temperature;BMP_pressure;BME280_temperature;BME280_humidity;BME280_pressure;Samples;Min_cycle;Max_cycle;Signal;HPM_P1;HPM_P2
2022/07/21 00:00:15;;;;;;;6.82;2.25;;;;;;;;;;5028295;28;20624;-78
2022/07/21 00:02:41;;;;;;;11.32;2.03;;;;;;;;;;5027888;28;20057;-78
2022/07/21 00:05:08;;;;;;;8.80;2.20;;;;;;;;;;5030296;28;20374;-78
2022/07/21 00:07:34;;;;;;;6.57;2.03;;;;;;;;;;5036087;28;20084;-78
2022/07/21 00:10:01;;;;;;;6.70;2.10;;;;;;;;;;5030298;28;20084;-78
2022/07/21 00:12:30;;;;;;;6.90;2.40;;;;;;;;;;5028697;28;20065;-78
2022/07/21 00:14:56;;;;;;;5.78;2.65;;;;;;;;;;5030011;28;20158;-78
2022/07/21 00:17:23;;;;;;;12.48;2.90;;;;;;;;;;5029218;28;20246;-79
2022/07/21 00:19:50;;;;;;;11.35;3.25;;;;;;;;;;5030162;28;20344;-78
2022/07/21 00:22:16;;;;;;;11.48;3.25;;;;;;;;;;5029996;28;20075;-78
2022/07/21 00:24:42;;;;;;;19.67;5.13;;;;;;;;;;5036493;28;20050;-78
2022/07/21 00:27:09;;;;;;;20.98;7.38;;;;;;;;;;5029398;28;20132;-79
2022/07/21 00:29:38;;;;;;;40.65;8.82;;;;;;;;;;5027568;28;20076;-79
2022/07/21 00:32:05;;;;;;;29.90;9.27;;;;;;;;;;5036578;28;20080;-78
2022/07/21 00:34:33;;;;;;;35.42;9.75;;;;;;;;;;5042268;28;20078;-78
2022/07/21 00:36:59;;;;;;;28.33;10.30;;;;;;;;;;5035963;28;20057;-78
2022/07/21 00:39:26;;;;;;;32.45;11.00;;;;;;;;;;5028686;28;20780;-78
2022/07/21 00:41:52;;;;;;;39.95;10.57;;;;;;;;;;5029646;28;20133;-78
2022/07/21 00:44:20;;;;;;;21.20;10.10;;;;;;;;;;5029659;28;20046;-78
2022/07/21 00:46:46;;;;;;;26.00;10.35;;;;;;;;;;5034771;28;20080;-80
2022/07/21 00:49:13;;;;;;;29.65;10.57;;;;;;;;;;5041421;28;20061;-79
2022/07/21 00:51:39;;;;;;;36.83;10.80;;;;;;;;;;5048406;28;20049;-79
2022/07/21 00:54:06;;;;;;;27.35;10.45;;;;;;;;;;5030708;28;20479;-79
2022/07/21 00:56:32;;;;;;;29.92;10.55;;;;;;;;;;5030398;28;20437;-78
2022/07/21 00:58:59;;;;;;;26.23;11.23;;;;;;;;;;5030854;28;20088;-77
2022/07/21 01:01:25;;;;;;;28.65;10.90;;;;;;;;;;5027651;28;20498;-78
2022/07/21 01:03:52;;;;;;;31.38;10.35;;;;;;;;;;5027780;28;20046;-78
2022/07/21 01:06:18;;;;;;;35.40;11.40;;;;;;;;;;5030296;28;20180;-79
2022/07/21 01:08:45;;;;;;;25.52;10.35;;;;;;;;;;5031476;28;20057;-78
2022/07/21 01:11:11;;;;;;;19.08;9.57;;;;;;;;;;5034159;28;20046;-80
2022/07/21 01:13:41;;;;;;;19.33;9.85;;;;;;;;;;5036496;28;20119;-78
2022/07/21 01:16:08;;;;;;;23.33;9.75;;;;;;;;;;5030293;28;20057;-79
2022/07/21 01:18:35;;;;;;;25.63;10.23;;;;;;;;;;5032123;28;20045;-79
2022/07/21 01:21:06;;;;;;;21.13;9.38;;;;;;;;;;5030877;28;20134;-78
2022/07/21 01:23:33;;;;;;;31.63;9.75;;;;;;;;;;5036175;28;20069;-79
2022/07/21 01:25:59;;;;;;;19.17;8.90;;;;;;;;;;5035274;28;20089;-79
2022/07/21 01:28:26;;;;;;;20.13;8.98;;;;;;;;;;5030604;28;20084;-80
2022/07/21 01:30:52;;;;;;;22.52;9.20;;;;;;;;;;5029336;28;20041;-78
2022/07/21 01:33:19;;;;;;;15.55;7.95;;;;;;;;;;5030736;28;20129;-79
2022/07/21 01:35:46;;;;;;;24.80;8.38;;;;;;;;;;5032443;28;20049;-79
2022/07/21 01:43:45;;;;;;;16.80;7.43;;;;;;;;;;5028742;28;20061;-80
2022/07/21 01:46:12;;;;;;;20.67;8.02;;;;;;;;;;5022200;28;20080;-75
2022/07/21 01:48:42;;;;;;;21.13;7.85;;;;;;;;;;5010987;28;20061;-76
2022/07/21 01:51:09;;;;;;;16.17;6.95;;;;;;;;;;5027960;28;20041;-77
2022/07/21 01:53:36;;;;;;;20.05;7.80;;;;;;;;;;5028351;28;20132;-75
2022/07/21 01:56:02;;;;;;;13.18;7.00;;;;;;;;;;5028134;28;20152;-78
2022/07/21 01:58:29;;;;;;;17.02;7.70;;;;;;;;;;5028905;28;20100;-78
2022/07/21 02:00:55;;;;;;;10.98;6.65;;;;;;;;;;5028870;28;20077;-78
2022/07/21 02:03:22;;;;;;;15.88;6.75;;;;;;;;;;5026814;28;20053;-76
2022/07/21 02:05:48;;;;;;;13.95;7.47;;;;;;;;;;5029607;28;20119;-78
2022/07/21 02:08:17;;;;;;;19.70;7.00;;;;;;;;;;5031027;28;20065;-76
2022/07/21 02:10:43;;;;;;;12.60;7.13;;;;;;;;;;5029099;28;20128;-78
2022/07/21 02:13:09;;;;;;;14.38;6.65;;;;;;;;;;5028946;28;20092;-79
2022/07/21 02:15:36;;;;;;;11.55;6.57;;;;;;;;;;5030054;28;20099;-78
2022/07/21 02:18:05;;;;;;;11.75;6.70;;;;;;;;;;5030669;28;20133;-79
2022/07/21 02:20:32;;;;;;;12.07;6.38;;;;;;;;;;5032861;28;20084;-78
2022/07/21 02:22:58;;;;;;;12.77;6.50;;;;;;;;;;5033295;28;20120;-80
2022/07/21 02:25:25;;;;;;;13.65;6.68;;;;;;;;;;5042262;28;20079;-78
2022/07/21 02:27:52;;;;;;;19.85;6.70;;;;;;;;;;5035245;28;20045;-78
2022/07/21 02:30:18;;;;;;;17.13;6.85;;;;;;;;;;5032346;28;20087;-79
2022/07/21 02:32:45;;;;;;;18.08;6.88;;;;;;;;;;5031013;28;20133;-78
2022/07/21 02:35:11;;;;;;;14.45;6.75;;;;;;;;;;5037297;28;20073;-78
2022/07/21 02:37:40;;;;;;;23.15;6.95;;;;;;;;;;5033748;28;20049;-78
2022/07/21 02:40:10;;;;;;;12.00;6.55;;;;;;;;;;5033394;28;20255;-78
2022/07/21 02:42:37;;;;;;;13.20;6.75;;;;;;;;;;5030822;28;20085;-79
2022/07/21 02:45:05;;;;;;;12.68;6.88;;;;;;;;;;5033253;28;20054;-78
2022/07/21 02:47:32;;;;;;;13.15;6.75;;;;;;;;;;5034185;28;20076;-77
2022/07/21 02:49:59;;;;;;;12.95;6.78;;;;;;;;;;5047953;28;20045;-78
2022/07/21 02:52:25;;;;;;;12.20;6.78;;;;;;;;;;5034416;28;20133;-79
2022/07/21 02:54:52;;;;;;;11.57;6.85;;;;;;;;;;5037275;28;20068;-77
2022/07/21 02:57:18;;;;;;;17.00;7.05;;;;;;;;;;5036573;28;20092;-77
2022/07/21 02:59:45;;;;;;;13.50;7.18;;;;;;;;;;5032755;28;20458;-78
2022/07/21 03:02:11;;;;;;;13.30;7.28;;;;;;;;;;5028478;28;20072;-78
2022/07/21 03:04:38;;;;;;;11.00;6.82;;;;;;;;;;5029879;28;20124;-77
2022/07/21 03:07:08;;;;;;;18.13;8.00;;;;;;;;;;5055640;28;20111;-76
2022/07/21 03:09:34;;;;;;;13.63;6.82;;;;;;;;;;5027530;28;20057;-78
2022/07/21 03:12:00;;;;;;;14.63;6.90;;;;;;;;;;5025910;28;20084;-78
2022/07/21 03:14:27;;;;;;;14.60;7.30;;;;;;;;;;5031764;28;20041;-78
2022/07/21 03:16:53;;;;;;;12.70;6.70;;;;;;;;;;5028505;28;20046;-79
2022/07/21 03:19:20;;;;;;;14.90;7.25;;;;;;;;;;5028693;28;20053;-79
2022/07/21 03:21:46;;;;;;;15.63;7.18;;;;;;;;;;5027414;28;20042;-78
2022/07/21 03:24:13;;;;;;;21.30;6.93;;;;;;;;;;5026959;28;20128;-77
2022/07/21 03:26:39;;;;;;;12.32;7.47;;;;;;;;;;5027694;28;20435;-78
2022/07/21 03:29:06;;;;;;;13.32;7.13;;;;;;;;;;5031542;28;20052;-80
2022/07/21 03:31:32;;;;;;;17.77;8.20;;;;;;;;;;5029880;28;20069;-79
2022/07/21 03:33:59;;;;;;;15.35;7.75;;;;;;;;;;5015830;28;20045;-78
2022/07/21 03:36:25;;;;;;;16.02;7.85;;;;;;;;;;5031303;28;20057;-78
2022/07/21 03:38:52;;;;;;;12.27;7.43;;;;;;;;;;5033343;28;20045;-79
2022/07/21 03:41:22;;;;;;;18.98;7.68;;;;;;;;;;5034326;28;20144;-78
2022/07/21 03:43:48;;;;;;;17.77;7.55;;;;;;;;;;5034349;28;20049;-78
2022/07/21 03:46:15;;;;;;;18.88;7.95;;;;;;;;;;5032185;28;20099;-78
2022/07/21 03:48:41;;;;;;;13.52;7.75;;;;;;;;;;5028174;28;20077;-77
2022/07/21 03:51:09;;;;;;;11.75;7.72;;;;;;;;;;5030648;28;20049;-78
2022/07/21 03:53:35;;;;;;;13.52;6.68;;;;;;;;;;5031407;28;20124;-77
2022/07/21 03:56:02;;;;;;;17.17;6.82;;;;;;;;;;5030445;28;20049;-77
2022/07/21 03:58:29;;;;;;;14.88;7.05;;;;;;;;;;5030559;28;20081;-79
2022/07/21 04:00:55;;;;;;;12.32;6.07;;;;;;;;;;5020522;28;20053;-79
2022/07/21 04:03:22;;;;;;;10.27;5.95;;;;;;;;;;5008931;28;20451;-77
2022/07/21 04:05:48;;;;;;;8.63;6.25;;;;;;;;;;5009350;28;20197;-77
2022/07/21 04:08:15;;;;;;;10.88;6.32;;;;;;;;;;5024175;28;20144;-78
2022/07/21 04:10:42;;;;;;;11.10;6.25;;;;;;;;;;5029993;28;20552;-76
2022/07/21 04:13:10;;;;;;;11.07;6.05;;;;;;;;;;5029885;28;20045;-76
2022/07/21 04:15:37;;;;;;;13.70;5.78;;;;;;;;;;5029897;28;20124;-78
2022/07/21 04:18:04;;;;;;;8.13;5.38;;;;;;;;;;5027741;28;20111;-78
2022/07/21 04:20:30;;;;;;;12.30;5.22;;;;;;;;;;5031617;28;20103;-75
2022/07/21 04:22:57;;;;;;;11.82;5.40;;;;;;;;;;5033399;28;20073;-77
2022/07/21 04:25:23;;;;;;;13.85;5.60;;;;;;;;;;5031282;28;20056;-75
2022/07/21 04:27:50;;;;;;;9.32;4.85;;;;;;;;;;5029805;28;20139;-76
2022/07/21 04:30:18;;;;;;;8.05;4.57;;;;;;;;;;5030360;28;20488;-77
2022/07/21 04:32:45;;;;;;;9.15;4.60;;;;;;;;;;5028202;28;20167;-79
2022/07/21 04:35:12;;;;;;;7.28;4.80;;;;;;;;;;5031268;28;20562;-75
2022/07/21 04:37:39;;;;;;;6.80;4.60;;;;;;;;;;5029204;28;20111;-75
2022/07/21 04:40:06;;;;;;;9.10;4.28;;;;;;;;;;5029896;28;20180;-78
2022/07/21 04:42:33;;;;;;;8.57;4.32;;;;;;;;;;5029450;28;20073;-77
2022/07/21 04:45:00;;;;;;;8.48;4.28;;;;;;;;;;5029940;28;20046;-77
2022/07/21 04:47:27;;;;;;;6.72;3.50;;;;;;;;;;5038379;28;20406;-77
2022/07/21 04:49:54;;;;;;;5.85;3.33;;;;;;;;;;5037765;28;20060;-78
2022/07/21 04:52:20;;;;;;;6.60;3.72;;;;;;;;;;5031112;28;20409;-76
2022/07/21 04:54:47;;;;;;;6.68;4.10;;;;;;;;;;5029271;28;20145;-78
2022/07/21 04:57:13;;;;;;;8.73;3.78;;;;;;;;;;5028517;28;20080;-77
2022/07/21 04:59:39;;;;;;;7.22;3.97;;;;;;;;;;5024547;28;20321;-77
2022/07/21 05:02:06;;;;;;;11.30;3.65;;;;;;;;;;5029638;28;20089;-76
2022/07/21 05:04:33;;;;;;;7.65;4.15;;;;;;;;;;5031620;28;20049;-77
2022/07/21 05:06:59;;;;;;;10.73;4.00;;;;;;;;;;5032171;28;20063;-77
2022/07/21 05:09:25;;;;;;;8.32;4.50;;;;;;;;;;5032931;28;20522;-80
2022/07/21 05:11:52;;;;;;;5.80;3.80;;;;;;;;;;5033175;28;20045;-79
2022/07/21 05:14:18;;;;;;;11.85;4.03;;;;;;;;;;5034383;28;20084;-79
2022/07/21 05:16:45;;;;;;;6.82;4.07;;;;;;;;;;5031624;28;20683;-79
2022/07/21 05:19:12;;;;;;;7.78;3.88;;;;;;;;;;5033737;28;20045;-77
2022/07/21 05:21:39;;;;;;;7.80;3.85;;;;;;;;;;5033639;28;20641;-79
2022/07/21 05:24:05;;;;;;;8.77;3.83;;;;;;;;;;5036027;28;20080;-79
2022/07/21 05:26:31;;;;;;;7.57;3.85;;;;;;;;;;5039727;28;20049;-79
2022/07/21 05:28:58;;;;;;;5.40;3.70;;;;;;;;;;5037642;28;20081;-79
2022/07/21 05:31:24;;;;;;;7.88;3.75;;;;;;;;;;5040175;28;20041;-78
2022/07/21 05:33:51;;;;;;;6.97;3.72;;;;;;;;;;5041558;28;20425;-81
2022/07/21 05:36:18;;;;;;;8.65;3.95;;;;;;;;;;5043605;28;20045;-80
2022/07/21 05:38:45;;;;;;;12.55;4.20;;;;;;;;;;5039553;28;20136;-80
2022/07/21 05:41:11;;;;;;;10.20;3.70;;;;;;;;;;5034869;28;20119;-78
2022/07/21 05:43:38;;;;;;;8.60;4.18;;;;;;;;;;5033930;28;20132;-80
2022/07/21 05:46:04;;;;;;;6.60;3.80;;;;;;;;;;5040401;28;20084;-81
2022/07/21 05:48:31;;;;;;;7.15;3.97;;;;;;;;;;5037320;28;20054;-79
2022/07/21 05:50:57;;;;;;;10.65;4.70;;;;;;;;;;5037232;28;20123;-80
2022/07/21 05:53:24;;;;;;;7.07;3.80;;;;;;;;;;5039517;28;20045;-79
2022/07/21 05:55:50;;;;;;;13.68;4.43;;;;;;;;;;5039263;28;20080;-80
2022/07/21 05:58:18;;;;;;;9.23;4.13;;;;;;;;;;5041957;28;20072;-80
2022/07/21 06:01:07;;;;;;;7.80;4.30;;;;;;;;;;5041704;28;20049;-80
2022/07/21 06:03:32;;;;;;;9.93;3.97;;;;;;;;;;5040188;28;20088;-79
2022/07/21 06:05:58;;;;;;;14.60;4.30;;;;;;;;;;5038408;28;20053;-80
2022/07/21 06:08:24;;;;;;;8.32;4.55;;;;;;;;;;5040540;28;20088;-80
2022/07/21 06:10:51;;;;;;;10.75;4.05;;;;;;;;;;5039418;28;20057;-80
2022/07/21 06:13:17;;;;;;;14.52;4.97;;;;;;;;;;5039709;28;20076;-79
2022/07/21 06:15:44;;;;;;;10.13;4.43;;;;;;;;;;5040047;28;20052;-79
2022/07/21 06:18:10;;;;;;;11.20;4.75;;;;;;;;;;5037714;28;20144;-80
2022/07/21 06:20:37;;;;;;;14.90;5.22;;;;;;;;;;5040476;28;20079;-80
2022/07/21 06:23:03;;;;;;;10.43;4.68;;;;;;;;;;5038401;28;20045;-80
2022/07/21 06:25:29;;;;;;;7.93;4.50;;;;;;;;;;5040463;28;20045;-80
2022/07/21 06:27:56;;;;;;;9.07;4.85;;;;;;;;;;5038262;28;20049;-80
2022/07/21 06:30:22;;;;;;;10.90;6.10;;;;;;;;;;5039901;28;20112;-80
2022/07/21 06:32:49;;;;;;;11.85;5.53;;;;;;;;;;5042853;28;20049;-80
2022/07/21 06:35:15;;;;;;;11.15;5.57;;;;;;;;;;5044096;28;20049;-79
2022/07/21 06:37:45;;;;;;;7.43;5.10;;;;;;;;;;5049898;28;20053;-80
2022/07/21 06:40:12;;;;;;;11.40;5.00;;;;;;;;;;5044434;28;20100;-79
2022/07/21 06:42:39;;;;;;;12.45;5.30;;;;;;;;;;5034838;28;20084;-80
2022/07/21 06:45:20;;;;;;;9.35;5.43;;;;;;;;;;5043640;28;20514;-80
2022/07/21 06:47:46;;;;;;;12.65;5.97;;;;;;;;;;5044604;28;20045;-80
2022/07/21 06:50:12;;;;;;;14.40;6.00;;;;;;;;;;5049613;28;20076;-79
2022/07/21 06:56:08;;;;;;;15.10;6.78;;;;;;;;;;5041413;28;20084;-80
2022/07/21 06:59:05;;;;;;;12.40;6.45;;;;;;;;;;5038484;28;20053;-80
2022/07/21 07:01:32;;;;;;;11.85;7.07;;;;;;;;;;5036654;28;20042;-77
2022/07/21 07:07:20;;;;;;;13.30;7.28;;;;;;;;;;5017353;28;20168;-80
2022/07/21 07:10:05;;;;;;;14.48;7.63;;;;;;;;;;5014480;28;20104;-79
2022/07/21 07:12:32;;;;;;;12.15;6.65;;;;;;;;;;5012676;28;20089;-79
2022/07/21 07:15:18;;;;;;;17.00;6.55;;;;;;;;;;5013877;28;20046;-79
2022/07/21 07:17:45;;;;;;;17.48;6.47;;;;;;;;;;5010138;28;20069;-78
2022/07/21 07:20:11;;;;;;;13.80;5.80;;;;;;;;;;5012088;28;20262;-78
2022/07/21 07:22:38;;;;;;;11.00;5.80;;;;;;;;;;5013573;28;20190;-80
2022/07/21 07:25:05;;;;;;;9.13;5.35;;;;;;;;;;5031245;28;20053;-79
2022/07/21 07:27:31;;;;;;;10.70;5.50;;;;;;;;;;5033624;28;20395;-78
2022/07/21 07:30:00;;;;;;;8.27;4.88;;;;;;;;;;5032774;28;20458;-79
2022/07/21 07:32:34;;;;;;;6.70;5.13;;;;;;;;;;5032687;28;20057;-79
2022/07/21 07:35:01;;;;;;;11.88;4.78;;;;;;;;;;5034444;28;20056;-79
2022/07/21 07:37:27;;;;;;;9.63;5.07;;;;;;;;;;5034146;28;20087;-79
2022/07/21 07:39:54;;;;;;;11.82;4.70;;;;;;;;;;5033288;28;20045;-79
2022/07/21 07:42:20;;;;;;;6.90;4.65;;;;;;;;;;5032137;28;20340;-78
2022/07/21 07:44:47;;;;;;;9.13;4.30;;;;;;;;;;5032949;28;20088;-79
2022/07/21 07:47:14;;;;;;;8.57;4.45;;;;;;;;;;5029873;28;20085;-78
2022/07/21 07:49:40;;;;;;;11.50;5.03;;;;;;;;;;5031868;28;20105;-77
2022/07/21 07:52:07;;;;;;;8.38;4.43;;;;;;;;;;5031687;28;20075;-78
2022/07/21 07:54:39;;;;;;;7.25;4.53;;;;;;;;;;5034775;28;20056;-77
2022/07/21 07:57:08;;;;;;;9.05;4.60;;;;;;;;;;5030767;28;20049;-77
2022/07/21 07:59:34;;;;;;;6.00;3.92;;;;;;;;;;5031101;28;20084;-77
2022/07/21 08:02:01;;;;;;;4.80;3.50;;;;;;;;;;5027813;28;20487;-78
2022/07/21 08:04:28;;;;;;;6.88;3.03;;;;;;;;;;5030434;28;20421;-77
2022/07/21 08:06:55;;;;;;;5.45;3.65;;;;;;;;;;5029857;28;20053;-78
2022/07/21 08:09:21;;;;;;;6.38;3.40;;;;;;;;;;5031461;28;20500;-78
2022/07/21 08:11:48;;;;;;;7.38;3.70;;;;;;;;;;5029282;28;20041;-79
2022/07/21 08:14:15;;;;;;;5.15;3.45;;;;;;;;;;5029381;28;20516;-78
2022/07/21 08:16:42;;;;;;;4.22;3.20;;;;;;;;;;5029707;28;20053;-79
2022/07/21 08:19:08;;;;;;;7.80;3.40;;;;;;;;;;5029975;28;20053;-78
2022/07/21 08:21:35;;;;;;;6.05;3.20;;;;;;;;;;5030553;28;20473;-78
2022/07/21 08:24:21;;;;;;;7.60;3.45;;;;;;;;;;5032201;28;20048;-78
2022/07/21 08:26:48;;;;;;;4.95;3.65;;;;;;;;;;5033047;28;20077;-79
2022/07/21 08:29:14;;;;;;;6.47;3.40;;;;;;;;;;5030654;28;20057;-78
2022/07/21 08:31:41;;;;;;;5.65;3.38;;;;;;;;;;5031708;28;20072;-78
2022/07/21 08:34:07;;;;;;;7.95;3.67;;;;;;;;;;5030294;28;20069;-77
2022/07/21 08:36:33;;;;;;;5.95;3.10;;;;;;;;;;5033177;28;20049;-79
2022/07/21 08:39:00;;;;;;;7.00;3.13;;;;;;;;;;5033422;28;20045;-79
2022/07/21 08:41:26;;;;;;;6.80;3.65;;;;;;;;;;5031537;28;20226;-78
2022/07/21 08:43:53;;;;;;;6.90;3.45;;;;;;;;;;5029312;28;20072;-78
2022/07/21 08:46:21;;;;;;;5.68;3.60;;;;;;;;;;5030704;28;20056;-78
2022/07/21 08:48:49;;;;;;;8.15;4.00;;;;;;;;;;5027342;28;20467;-77
2022/07/21 08:51:16;;;;;;;4.43;3.40;;;;;;;;;;5029257;28;20118;-78
2022/07/21 08:53:44;;;;;;;8.80;3.70;;;;;;;;;;5030240;28;20041;-78
2022/07/21 08:56:10;;;;;;;5.40;4.03;;;;;;;;;;5029913;28;20077;-78
2022/07/21 08:58:37;;;;;;;10.55;4.00;;;;;;;;;;5029857;28;20046;-77
2022/07/21 09:01:04;;;;;;;7.72;4.25;;;;;;;;;;5028290;28;20046;-77
2022/07/21 09:03:32;;;;;;;7.28;4.45;;;;;;;;;;5027804;28;20057;-78
2022/07/21 09:06:01;;;;;;;8.52;4.43;;;;;;;;;;5031724;28;20057;-78
2022/07/21 09:08:28;;;;;;;7.18;4.68;;;;;;;;;;5031212;28;20107;-79
2022/07/21 09:11:07;;;;;;;7.68;4.70;;;;;;;;;;5032645;28;20077;-80
2022/07/21 09:13:33;;;;;;;9.82;4.85;;;;;;;;;;5030400;28;20069;-78
2022/07/21 09:15:59;;;;;;;12.68;4.88;;;;;;;;;;5029975;28;20077;-78
2022/07/21 09:18:28;;;;;;;9.85;5.10;;;;;;;;;;5028853;28;20057;-79
2022/07/21 09:20:55;;;;;;;8.90;5.78;;;;;;;;;;5029303;28;20422;-78
2022/07/21 09:23:22;;;;;;;9.27;5.35;;;;;;;;;;5028393;28;20124;-78
2022/07/21 09:25:50;;;;;;;9.20;5.57;;;;;;;;;;5029631;28;20141;-78
2022/07/21 09:28:23;;;;;;;12.65;5.78;;;;;;;;;;5028810;28;20096;-79
2022/07/21 09:30:59;;;;;;;9.57;6.03;;;;;;;;;;5033144;28;20235;-80
2022/07/21 09:33:31;;;;;;;16.83;6.50;;;;;;;;;;5026639;28;20064;-78
2022/07/21 09:35:58;;;;;;;13.40;6.28;;;;;;;;;;5030518;28;20103;-79
2022/07/21 09:38:25;;;;;;;9.15;6.28;;;;;;;;;;5030782;28;20132;-78
2022/07/21 09:40:56;;;;;;;12.35;7.38;;;;;;;;;;5029595;28;20053;-78
2022/07/21 09:43:43;;;;;;;12.93;6.95;;;;;;;;;;5028812;28;20506;-79
2022/07/21 09:46:14;;;;;;;15.30;7.45;;;;;;;;;;5029674;28;20049;-76
2022/07/21 09:48:42;;;;;;;12.65;7.80;;;;;;;;;;5027148;28;20121;-77
2022/07/21 09:51:40;;;;;;;11.15;7.80;;;;;;;;;;5029486;28;20100;-76
2022/07/21 09:54:09;;;;;;;13.52;7.75;;;;;;;;;;5002500;28;20053;-76
2022/07/21 09:56:37;;;;;;;13.00;8.25;;;;;;;;;;5029500;28;20486;-78
2022/07/21 09:59:05;;;;;;;15.00;8.55;;;;;;;;;;5029737;28;20288;-78
2022/07/21 10:01:31;;;;;;;11.45;8.48;;;;;;;;;;5040022;28;20076;-79
2022/07/21 10:03:59;;;;;;;11.88;8.52;;;;;;;;;;5043647;28;20136;-78
2022/07/21 10:06:27;;;;;;;13.02;8.30;;;;;;;;;;5038475;28;20045;-79
2022/07/21 10:08:57;;;;;;;12.25;8.05;;;;;;;;;;5043202;28;20056;-78
2022/07/21 10:11:24;;;;;;;13.75;7.75;;;;;;;;;;5037378;28;20045;-78
2022/07/21 10:13:55;;;;;;;13.35;7.70;;;;;;;;;;5035897;28;20041;-79
2022/07/21 10:16:22;;;;;;;13.02;7.88;;;;;;;;;;5037305;28;20346;-78
2022/07/21 10:19:10;;;;;;;14.90;8.07;;;;;;;;;;5031644;28;20136;-78
2022/07/21 10:21:45;;;;;;;14.60;7.47;;;;;;;;;;5029069;28;20076;-78
2022/07/21 10:24:12;;;;;;;21.80;7.97;;;;;;;;;;5028917;28;20513;-78
2022/07/21 10:26:58;;;;;;;14.60;8.38;;;;;;;;;;5028290;28;20099;-78
2022/07/21 10:29:43;;;;;;;16.20;7.43;;;;;;;;;;5030005;28;20053;-78
2022/07/21 10:32:10;;;;;;;12.23;7.10;;;;;;;;;;5025062;28;20104;-79
2022/07/21 10:34:37;;;;;;;11.43;7.13;;;;;;;;;;5028523;28;20421;-79
2022/07/21 10:37:03;;;;;;;12.18;7.70;;;;;;;;;;5029080;28;20158;-79
2022/07/21 10:39:31;;;;;;;10.63;7.55;;;;;;;;;;5032202;28;20087;-78
2022/07/21 10:41:59;;;;;;;12.20;7.28;;;;;;;;;;5030891;28;20045;-80
2022/07/21 10:44:28;;;;;;;12.07;8.07;;;;;;;;;;5032239;28;20089;-79
2022/07/21 10:47:09;;;;;;;12.43;7.40;;;;;;;;;;5029995;28;20145;-79
2022/07/21 10:49:51;;;;;;;15.32;7.95;;;;;;;;;;5032716;28;20107;-79
2022/07/21 10:52:39;;;;;;;12.73;7.90;;;;;;;;;;5032061;28;20065;-79
2022/07/21 10:55:28;;;;;;;11.00;7.38;;;;;;;;;;5040815;28;20456;-78
2022/07/21 10:58:14;;;;;;;11.68;7.43;;;;;;;;;;5051078;28;20060;-78
2022/07/21 11:00:54;;;;;;;10.35;7.55;;;;;;;;;;5051449;28;20064;-78
2022/07/21 11:03:30;;;;;;;13.85;8.05;;;;;;;;;;5049681;28;20091;-77
2022/07/21 11:06:16;;;;;;;11.65;8.13;;;;;;;;;;5044020;28;20107;-78
2022/07/21 11:08:47;;;;;;;11.40;7.53;;;;;;;;;;5051295;28;20060;-79
2022/07/21 11:11:25;;;;;;;12.50;8.30;;;;;;;;;;5035472;28;20088;-80
2022/07/21 11:14:04;;;;;;;11.82;8.15;;;;;;;;;;5055322;28;20048;-80
2022/07/21 11:16:49;;;;;;;12.38;7.72;;;;;;;;;;5055742;28;20466;-79
2022/07/21 11:19:28;;;;;;;13.45;9.02;;;;;;;;;;5051013;28;20053;-78
2022/07/21 11:21:55;;;;;;;14.77;9.13;;;;;;;;;;5042840;28;20049;-78
2022/07/21 11:24:22;;;;;;;14.98;9.45;;;;;;;;;;5051998;28;20053;-78
2022/07/21 11:27:01;;;;;;;13.55;9.02;;;;;;;;;;5051328;28;20092;-79
2022/07/21 11:29:29;;;;;;;14.35;9.32;;;;;;;;;;5055288;28;20065;-76
2022/07/21 11:31:56;;;;;;;15.77;9.73;;;;;;;;;;5052609;28;20052;-76
2022/07/21 11:34:23;;;;;;;12.68;8.90;;;;;;;;;;5051438;28;20049;-77
2022/07/21 11:37:00;;;;;;;13.82;8.48;;;;;;;;;;5049474;28;20053;-78
2022/07/21 11:39:46;;;;;;;14.82;9.50;;;;;;;;;;5050275;28;20136;-76
2022/07/21 11:42:15;;;;;;;15.98;9.20;;;;;;;;;;5049962;28;20409;-77
2022/07/21 11:44:42;;;;;;;12.50;8.35;;;;;;;;;;5050493;28;20528;-76
2022/07/21 11:47:10;;;;;;;16.52;9.30;;;;;;;;;;5048357;28;20532;-78
2022/07/21 11:49:37;;;;;;;19.15;10.27;;;;;;;;;;5051517;28;20068;-78
2022/07/21 11:52:08;;;;;;;15.27;9.18;;;;;;;;;;5050615;28;20087;-78
2022/07/21 11:54:34;;;;;;;14.45;9.73;;;;;;;;;;5051024;28;20040;-79
2022/07/21 11:57:02;;;;;;;13.07;9.43;;;;;;;;;;5051476;28;20115;-78
2022/07/21 11:59:29;;;;;;;13.88;9.88;;;;;;;;;;5051193;28;20099;-78
2022/07/21 12:02:07;;;;;;;12.60;9.50;;;;;;;;;;5047350;28;20568;-77
2022/07/21 12:04:42;;;;;;;12.85;9.10;;;;;;;;;;5050673;28;20053;-76
2022/07/21 12:07:12;;;;;;;12.82;9.55;;;;;;;;;;5051147;28;20052;-77
2022/07/21 12:09:39;;;;;;;14.18;10.20;;;;;;;;;;5051158;28;20118;-78
2022/07/21 12:12:06;;;;;;;12.02;9.32;;;;;;;;;;5047448;28;20118;-77
2022/07/21 12:14:43;;;;;;;16.70;9.68;;;;;;;;;;5049997;28;20084;-76
2022/07/21 12:17:10;;;;;;;13.68;9.80;;;;;;;;;;5047610;28;20464;-76
2022/07/21 12:19:36;;;;;;;16.95;10.60;;;;;;;;;;5050290;28;20044;-78
2022/07/21 12:22:03;;;;;;;13.95;10.55;;;;;;;;;;5050119;28;20069;-78
2022/07/21 12:24:52;;;;;;;16.33;10.75;;;;;;;;;;5049979;28;20060;-77
2022/07/21 12:27:19;;;;;;;15.80;10.25;;;;;;;;;;5048897;28;20107;-77
2022/07/21 12:29:45;;;;;;;15.07;10.38;;;;;;;;;;5048033;28;20049;-78
2022/07/21 12:32:13;;;;;;;15.48;10.75;;;;;;;;;;5046935;28;20143;-79
2022/07/21 12:34:52;;;;;;;17.92;10.50;;;;;;;;;;5050048;28;20424;-78
2022/07/21 12:37:19;;;;;;;21.17;10.55;;;;;;;;;;5050992;28;20099;-78
2022/07/21 12:40:06;;;;;;;16.65;10.93;;;;;;;;;;5056760;28;20076;-77
2022/07/21 12:42:35;;;;;;;18.70;11.20;;;;;;;;;;5050540;28;20045;-77
2022/07/21 12:45:13;;;;;;;24.63;11.80;;;;;;;;;;5056327;28;20360;-79
2022/07/21 12:47:39;;;;;;;19.25;11.10;;;;;;;;;;5046952;28;20469;-77
2022/07/21 12:50:07;;;;;;;17.30;12.10;;;;;;;;;;5049851;28;20095;-77
2022/07/21 12:52:41;;;;;;;20.17;10.83;;;;;;;;;;5049162;28;20048;-77
2022/07/21 12:55:08;;;;;;;18.42;10.88;;;;;;;;;;5035092;28;20505;-78
2022/07/21 12:57:34;;;;;;;15.88;10.50;;;;;;;;;;5047778;28;20049;-78
2022/07/21 13:00:01;;;;;;;17.80;9.80;;;;;;;;;;5049488;28;20486;-79
2022/07/21 13:02:29;;;;;;;13.40;8.75;;;;;;;;;;5047015;28;20124;-77
2022/07/21 13:04:56;;;;;;;14.35;8.60;;;;;;;;;;5050841;28;20052;-79
2022/07/21 13:07:22;;;;;;;13.68;8.65;;;;;;;;;;5049860;28;20539;-78
2022/07/21 13:09:49;;;;;;;11.02;8.20;;;;;;;;;;5049983;28;20053;-79
2022/07/21 13:12:15;;;;;;;11.88;7.93;;;;;;;;;;5053289;28;20519;-78
2022/07/21 13:14:42;;;;;;;12.15;7.93;;;;;;;;;;5057417;28;20486;-79
2022/07/21 13:17:09;;;;;;;13.75;7.55;;;;;;;;;;5049988;28;20057;-79
2022/07/21 13:19:36;;;;;;;11.07;7.55;;;;;;;;;;5052151;28;20052;-79
2022/07/21 13:22:03;;;;;;;17.27;7.32;;;;;;;;;;5048683;28;20179;-78
2022/07/21 13:24:30;;;;;;;10.02;7.38;;;;;;;;;;5049216;28;20049;-80
2022/07/21 13:26:56;;;;;;;9.70;7.03;;;;;;;;;;5049646;28;20053;-78
2022/07/21 13:29:22;;;;;;;9.35;6.70;;;;;;;;;;5057681;28;20422;-77
2022/07/21 13:31:49;;;;;;;14.02;6.30;;;;;;;;;;5059368;28;20291;-77
2022/07/21 13:34:15;;;;;;;7.22;6.53;;;;;;;;;;5065573;28;20076;-79
2022/07/21 13:36:42;;;;;;;9.70;6.70;;;;;;;;;;5066348;28;20052;-77
2022/07/21 13:39:09;;;;;;;8.13;6.68;;;;;;;;;;5054547;28;20144;-78
2022/07/21 13:41:56;;;;;;;10.77;6.47;;;;;;;;;;5048645;28;20047;-78
2022/07/21 13:44:42;;;;;;;8.25;6.50;;;;;;;;;;5050735;28;20380;-79
2022/07/21 13:47:09;;;;;;;13.60;6.68;;;;;;;;;;5048451;28;20111;-79
2022/07/21 13:49:36;;;;;;;12.63;7.15;;;;;;;;;;5050900;28;20053;-79
2022/07/21 13:52:02;;;;;;;9.57;6.97;;;;;;;;;;5049805;28;20080;-78
2022/07/21 13:54:29;;;;;;;9.18;7.30;;;;;;;;;;5027537;28;20049;-77
2022/07/21 13:56:59;;;;;;;9.93;6.60;;;;;;;;;;5047138;28;20047;-78
2022/07/21 13:59:26;;;;;;;11.00;6.70;;;;;;;;;;5047938;28;20525;-77
2022/07/21 14:01:53;;;;;;;9.98;6.05;;;;;;;;;;5045004;28;20493;-77
2022/07/21 14:04:19;;;;;;;8.43;6.53;;;;;;;;;;5047365;28;20311;-77
2022/07/21 14:06:48;;;;;;;8.32;6.10;;;;;;;;;;5047856;28;20045;-77
2022/07/21 14:09:18;;;;;;;10.68;5.88;;;;;;;;;;5030595;28;20123;-77
2022/07/21 14:11:45;;;;;;;8.40;6.57;;;;;;;;;;5047092;28;20057;-76
2022/07/21 14:14:16;;;;;;;9.07;6.47;;;;;;;;;;5033715;28;20045;-77
2022/07/21 14:16:44;;;;;;;8.00;6.57;;;;;;;;;;5049521;28;20317;-77
2022/07/21 14:19:10;;;;;;;12.63;7.00;;;;;;;;;;5048592;28;20041;-77
2022/07/21 14:21:37;;;;;;;8.15;6.47;;;;;;;;;;5033683;28;20048;-78
2022/07/21 14:26:49;;;;;;;9.88;6.97;;;;;;;;;;5050472;28;20048;-77
2022/07/21 14:29:16;;;;;;;11.10;6.45;;;;;;;;;;5050517;28;20110;-78
2022/07/21 14:31:43;;;;;;;8.77;6.72;;;;;;;;;;5030779;28;20108;-77
2022/07/21 14:34:10;;;;;;;12.85;6.65;;;;;;;;;;5047375;28;20055;-77
2022/07/21 14:36:36;;;;;;;8.30;6.43;;;;;;;;;;5050016;28;20446;-78
2022/07/21 14:39:03;;;;;;;9.02;7.18;;;;;;;;;;5050687;28;20544;-78
2022/07/21 14:41:29;;;;;;;8.38;6.68;;;;;;;;;;5050422;28;20055;-78
2022/07/21 14:43:56;;;;;;;9.07;6.70;;;;;;;;;;5034213;28;20059;-77
2022/07/21 14:46:22;;;;;;;7.65;6.10;;;;;;;;;;5050854;28;20172;-79
2022/07/21 14:48:49;;;;;;;8.60;6.55;;;;;;;;;;5046983;28;20080;-78
2022/07/21 14:51:15;;;;;;;11.88;6.22;;;;;;;;;;5050441;28;20049;-78
2022/07/21 14:53:43;;;;;;;7.75;6.18;;;;;;;;;;5052817;28;20056;-77
2022/07/21 14:56:09;;;;;;;6.93;6.20;;;;;;;;;;5051669;28;20067;-77